sensor_id;sensor_type;location;lat;lon;timestamp;temperature;humidity
19692;DHT22;42748;50.016;19.890;2023-04-15T00:00:55;10.60;99.90
19692;DHT22;42748;50.016;19.890;2023-04-15T00:03:23;10.60;99.90
19692;DHT22;42748;50.016;19.890;2023-04-15T00:05:50;10.60;99.90
19692;DHT22;42748;50.016;19.890;2023-04-15T00:08:18;10.60;99.90
19692;DHT22;42748;50.016;19.890;2023-04-15T00:10:46;10.50;99.90
19692;DHT22;42748;50.016;19.890;2023-04-15T00:13:13;10.50;99.90
19692;DHT22;42748;50.016;19.890;2023-04-15T00:15:41;10.40;99.90
19692;DHT22;42748;50.016;19.890;2023-04-15T00:18:09;10.40;99.90
19692;DHT22;42748;50.016;19.890;2023-04-15T00:20:36;10.40;99.90
19692;DHT22;42748;50.016;19.890;2023-04-15T00:23:03;10.40;99.90
19692;DHT22;42748;50.016;19.890;2023-04-15T00:25:31;10.40;99.90
19692;DHT22;42748;50.016;19.890;2023-04-15T00:27:58;10.30;99.90
19692;DHT22;42748;50.016;19.890;2023-04-15T00:30:25;10.30;99.90
19692;DHT22;42748;50.016;19.890;2023-04-15T00:32:53;10.30;99.90
19692;DHT22;42748;50.016;19.890;2023-04-15T00:35:21;10.30;99.90
19692;DHT22;42748;50.016;19.890;2023-04-15T00:37:49;10.20;99.90
19692;DHT22;42748;50.016;19.890;2023-04-15T00:40:18;10.20;99.90
19692;DHT22;42748;50.016;19.890;2023-04-15T00:42:47;10.20;99.90
19692;DHT22;42748;50.016;19.890;2023-04-15T00:45:14;10.20;99.90
19692;DHT22;42748;50.016;19.890;2023-04-15T00:47:42;10.20;99.90
19692;DHT22;42748;50.016;19.890;2023-04-15T00:50:11;10.20;99.90
19692;DHT22;42748;50.016;19.890;2023-04-15T00:52:40;10.20;99.90
19692;DHT22;42748;50.016;19.890;2023-04-15T00:59:35;10.20;99.90
19692;DHT22;42748;50.016;19.890;2023-04-15T01:02:02;10.20;99.90
19692;DHT22;42748;50.016;19.890;2023-04-15T01:04:29;10.20;99.90
19692;DHT22;42748;50.016;19.890;2023-04-15T01:06:57;10.20;99.90
19692;DHT22;42748;50.016;19.890;2023-04-15T01:13:54;10.20;99.90
19692;DHT22;42748;50.016;19.890;2023-04-15T01:16:23;10.10;99.90
19692;DHT22;42748;50.016;19.890;2023-04-15T01:18:51;10.10;99.90
19692;DHT22;42748;50.016;19.890;2023-04-15T01:21:18;10.20;99.90
19692;DHT22;42748;50.016;19.890;2023-04-15T01:28:22;10.20;99.90
19692;DHT22;42748;50.016;19.890;2023-04-15T01:31:03;10.10;99.90
19692;DHT22;42748;50.016;19.890;2023-04-15T01:33:31;10.10;99.90
19692;DHT22;42748;50.016;19.890;2023-04-15T01:35:58;10.10;99.90
19692;DHT22;42748;50.016;19.890;2023-04-15T01:38:26;10.00;99.90
19692;DHT22;42748;50.016;19.890;2023-04-15T01:40:54;10.00;99.90
19692;DHT22;42748;50.016;19.890;2023-04-15T01:43:23;10.00;99.90
19692;DHT22;42748;50.016;19.890;2023-04-15T01:45:50;10.00;99.90
19692;DHT22;42748;50.016;19.890;2023-04-15T01:48:17;10.00;99.90
19692;DHT22;42748;50.016;19.890;2023-04-15T01:50:44;10.00;99.90
19692;DHT22;42748;50.016;19.890;2023-04-15T01:53:13;10.00;99.90
19692;DHT22;42748;50.016;19.890;2023-04-15T01:55:41;10.00;99.90
19692;DHT22;42748;50.016;19.890;2023-04-15T01:58:08;10.00;99.90
19692;DHT22;42748;50.016;19.890;2023-04-15T02:00:35;9.90;99.90
19692;DHT22;42748;50.016;19.890;2023-04-15T02:03:02;9.90;99.90
19692;DHT22;42748;50.016;19.890;2023-04-15T02:05:30;9.90;99.90
19692;DHT22;42748;50.016;19.890;2023-04-15T02:07:57;9.90;99.90
19692;DHT22;42748;50.016;19.890;2023-04-15T02:14:56;9.80;99.90
19692;DHT22;42748;50.016;19.890;2023-04-15T02:17:23;9.80;99.90
19692;DHT22;42748;50.016;19.890;2023-04-15T02:19:50;9.70;99.90
19692;DHT22;42748;50.016;19.890;2023-04-15T02:22:17;9.70;99.90
19692;DHT22;42748;50.016;19.890;2023-04-15T02:29:11;9.70;99.90
19692;DHT22;42748;50.016;19.890;2023-04-15T02:31:39;9.70;99.90
19692;DHT22;42748;50.016;19.890;2023-04-15T02:34:08;9.60;99.90
19692;DHT22;42748;50.016;19.890;2023-04-15T02:36:35;9.60;99.90
19692;DHT22;42748;50.016;19.890;2023-04-15T02:39:04;9.60;99.90
19692;DHT22;42748;50.016;19.890;2023-04-15T02:41:31;9.60;99.90
19692;DHT22;42748;50.016;19.890;2023-04-15T02:43:58;9.60;99.90
19692;DHT22;42748;50.016;19.890;2023-04-15T02:46:27;9.60;99.90
19692;DHT22;42748;50.016;19.890;2023-04-15T02:48:55;9.60;99.90
19692;DHT22;42748;50.016;19.890;2023-04-15T02:51:24;9.60;99.90
19692;DHT22;42748;50.016;19.890;2023-04-15T02:53:51;9.50;99.90
19692;DHT22;42748;50.016;19.890;2023-04-15T02:56:18;9.50;99.90
19692;DHT22;42748;50.016;19.890;2023-04-15T02:58:46;9.40;99.90
19692;DHT22;42748;50.016;19.890;2023-04-15T03:05:01;9.40;99.90
19692;DHT22;42748;50.016;19.890;2023-04-15T03:07:29;9.30;99.90
19692;DHT22;42748;50.016;19.890;2023-04-15T03:09:58;9.20;99.90
19692;DHT22;42748;50.016;19.890;2023-04-15T03:12:25;9.20;99.90
19692;DHT22;42748;50.016;19.890;2023-04-15T03:14:55;9.10;99.90
19692;DHT22;42748;50.016;19.890;2023-04-15T03:17:30;9.10;99.90
19692;DHT22;42748;50.016;19.890;2023-04-15T03:19:58;9.00;99.90
19692;DHT22;42748;50.016;19.890;2023-04-15T03:22:26;9.00;99.90
19692;DHT22;42748;50.016;19.890;2023-04-15T03:24:53;8.90;99.90
19692;DHT22;42748;50.016;19.890;2023-04-15T03:27:21;8.90;99.90
19692;DHT22;42748;50.016;19.890;2023-04-15T03:29:48;8.80;99.90
19692;DHT22;42748;50.016;19.890;2023-04-15T03:32:16;8.80;99.90
19692;DHT22;42748;50.016;19.890;2023-04-15T03:34:44;8.80;99.90
19692;DHT22;42748;50.016;19.890;2023-04-15T03:37:11;8.80;99.90
19692;DHT22;42748;50.016;19.890;2023-04-15T03:39:38;8.80;99.90
19692;DHT22;42748;50.016;19.890;2023-04-15T03:42:05;8.80;99.90
19692;DHT22;42748;50.016;19.890;2023-04-15T03:44:32;8.80;99.90
19692;DHT22;42748;50.016;19.890;2023-04-15T03:46:59;8.80;99.90
19692;DHT22;42748;50.016;19.890;2023-04-15T03:49:26;8.80;99.90
19692;DHT22;42748;50.016;19.890;2023-04-15T03:51:53;8.70;99.90
19692;DHT22;42748;50.016;19.890;2023-04-15T03:54:20;8.70;99.90
19692;DHT22;42748;50.016;19.890;2023-04-15T03:56:47;8.70;99.90
19692;DHT22;42748;50.016;19.890;2023-04-15T03:59:14;8.80;99.90
19692;DHT22;42748;50.016;19.890;2023-04-15T04:01:42;8.80;99.90
19692;DHT22;42748;50.016;19.890;2023-04-15T04:04:09;8.80;99.90
19692;DHT22;42748;50.016;19.890;2023-04-15T04:06:36;8.80;99.90
19692;DHT22;42748;50.016;19.890;2023-04-15T04:09:03;8.80;99.90
19692;DHT22;42748;50.016;19.890;2023-04-15T04:15:56;8.80;99.90
19692;DHT22;42748;50.016;19.890;2023-04-15T04:18:23;8.90;99.90
19692;DHT22;42748;50.016;19.890;2023-04-15T04:20:51;8.90;99.90
19692;DHT22;42748;50.016;19.890;2023-04-15T04:23:18;8.90;99.90
19692;DHT22;42748;50.016;19.890;2023-04-15T04:25:45;8.90;99.90
19692;DHT22;42748;50.016;19.890;2023-04-15T04:28:12;8.90;99.90
19692;DHT22;42748;50.016;19.890;2023-04-15T04:30:39;9.00;99.90
19692;DHT22;42748;50.016;19.890;2023-04-15T04:33:06;9.00;99.90
19692;DHT22;42748;50.016;19.890;2023-04-15T04:35:33;9.10;99.90
19692;DHT22;42748;50.016;19.890;2023-04-15T04:38:03;9.10;99.90
19692;DHT22;42748;50.016;19.890;2023-04-15T04:40:30;9.20;99.90
19692;DHT22;42748;50.016;19.890;2023-04-15T04:42:57;9.20;99.90
19692;DHT22;42748;50.016;19.890;2023-04-15T04:45:24;9.20;99.90
19692;DHT22;42748;50.016;19.890;2023-04-15T04:47:51;9.30;99.90
19692;DHT22;42748;50.016;19.890;2023-04-15T04:50:19;9.30;99.90
19692;DHT22;42748;50.016;19.890;2023-04-15T04:52:47;9.30;99.90
19692;DHT22;42748;50.016;19.890;2023-04-15T04:55:14;9.30;99.90
19692;DHT22;42748;50.016;19.890;2023-04-15T04:57:41;9.20;99.90
19692;DHT22;42748;50.016;19.890;2023-04-15T05:00:09;9.20;99.90
19692;DHT22;42748;50.016;19.890;2023-04-15T05:02:36;9.20;99.90
19692;DHT22;42748;50.016;19.890;2023-04-15T05:05:03;9.30;99.90
19692;DHT22;42748;50.016;19.890;2023-04-15T05:07:30;9.50;99.90
19692;DHT22;42748;50.016;19.890;2023-04-15T05:09:57;9.50;99.90
19692;DHT22;42748;50.016;19.890;2023-04-15T05:12:25;9.60;99.90
19692;DHT22;42748;50.016;19.890;2023-04-15T05:14:52;9.60;99.90
19692;DHT22;42748;50.016;19.890;2023-04-15T05:17:19;9.70;99.90
19692;DHT22;42748;50.016;19.890;2023-04-15T05:19:46;9.70;99.90
19692;DHT22;42748;50.016;19.890;2023-04-15T05:22:13;9.70;99.90
19692;DHT22;42748;50.016;19.890;2023-04-15T05:24:40;9.70;99.90
19692;DHT22;42748;50.016;19.890;2023-04-15T05:31:36;10.20;99.90
19692;DHT22;42748;50.016;19.890;2023-04-15T05:34:03;10.70;99.90
19692;DHT22;42748;50.016;19.890;2023-04-15T05:36:31;11.00;99.90
19692;DHT22;42748;50.016;19.890;2023-04-15T05:38:58;11.30;99.90
19692;DHT22;42748;50.016;19.890;2023-04-15T05:45:54;11.90;99.90
19692;DHT22;42748;50.016;19.890;2023-04-15T05:48:21;13.10;99.90
19692;DHT22;42748;50.016;19.890;2023-04-15T05:50:48;13.50;99.90
19692;DHT22;42748;50.016;19.890;2023-04-15T05:53:15;13.20;99.90
19692;DHT22;42748;50.016;19.890;2023-04-15T06:00:10;13.60;99.90
19692;DHT22;42748;50.016;19.890;2023-04-15T06:02:37;14.00;99.90
19692;DHT22;42748;50.016;19.890;2023-04-15T06:05:05;14.30;99.90
19692;DHT22;42748;50.016;19.890;2023-04-15T06:07:36;14.50;99.90
19692;DHT22;42748;50.016;19.890;2023-04-15T06:10:04;15.00;99.90
19692;DHT22;42748;50.016;19.890;2023-04-15T06:12:31;15.00;99.90
19692;DHT22;42748;50.016;19.890;2023-04-15T06:14:58;14.70;99.90
19692;DHT22;42748;50.016;19.890;2023-04-15T06:17:26;14.40;99.90
19692;DHT22;42748;50.016;19.890;2023-04-15T06:19:53;13.80;99.90
19692;DHT22;42748;50.016;19.890;2023-04-15T06:22:22;13.80;99.90
19692;DHT22;42748;50.016;19.890;2023-04-15T06:24:49;13.70;99.90
19692;DHT22;42748;50.016;19.890;2023-04-15T06:27:17;13.60;99.90
19692;DHT22;42748;50.016;19.890;2023-04-15T06:29:44;13.50;99.90
19692;DHT22;42748;50.016;19.890;2023-04-15T06:32:12;13.70;99.90
19692;DHT22;42748;50.016;19.890;2023-04-15T06:34:39;14.10;99.90
19692;DHT22;42748;50.016;19.890;2023-04-15T06:37:06;14.20;99.90
19692;DHT22;42748;50.016;19.890;2023-04-15T06:39:33;13.90;99.90
19692;DHT22;42748;50.016;19.890;2023-04-15T06:42:00;13.90;99.90
19692;DHT22;42748;50.016;19.890;2023-04-15T06:44:29;14.20;99.90
19692;DHT22;42748;50.016;19.890;2023-04-15T06:46:59;14.90;99.90
19692;DHT22;42748;50.016;19.890;2023-04-15T06:49:26;14.90;99.90
19692;DHT22;42748;50.016;19.890;2023-04-15T06:51:53;14.70;99.90
19692;DHT22;42748;50.016;19.890;2023-04-15T06:54:21;14.40;99.90
19692;DHT22;42748;50.016;19.890;2023-04-15T06:56:48;14.30;99.90
19692;DHT22;42748;50.016;19.890;2023-04-15T06:59:15;14.50;99.90
19692;DHT22;42748;50.016;19.890;2023-04-15T07:01:43;14.60;99.90
19692;DHT22;42748;50.016;19.890;2023-04-15T07:04:10;14.90;99.90
19692;DHT22;42748;50.016;19.890;2023-04-15T07:06:38;15.00;99.90
19692;DHT22;42748;50.016;19.890;2023-04-15T07:09:05;15.00;99.90
19692;DHT22;42748;50.016;19.890;2023-04-15T07:11:32;14.80;99.90
19692;DHT22;42748;50.016;19.890;2023-04-15T07:13:59;14.70;99.90
19692;DHT22;42748;50.016;19.890;2023-04-15T07:16:26;14.70;99.90
19692;DHT22;42748;50.016;19.890;2023-04-15T07:18:55;14.80;99.90
19692;DHT22;42748;50.016;19.890;2023-04-15T07:21:24;14.80;99.90
19692;DHT22;42748;50.016;19.890;2023-04-15T07:23:51;14.70;99.90
19692;DHT22;42748;50.016;19.890;2023-04-15T07:26:18;14.70;99.90
19692;DHT22;42748;50.016;19.890;2023-04-15T07:28:45;14.70;99.90
19692;DHT22;42748;50.016;19.890;2023-04-15T07:31:13;14.70;99.90
19692;DHT22;42748;50.016;19.890;2023-04-15T07:33:40;14.80;99.90
19692;DHT22;42748;50.016;19.890;2023-04-15T07:36:08;14.70;99.90
19692;DHT22;42748;50.016;19.890;2023-04-15T07:38:36;14.80;99.90
19692;DHT22;42748;50.016;19.890;2023-04-15T07:41:03;14.90;99.90
19692;DHT22;42748;50.016;19.890;2023-04-15T07:43:30;15.10;99.90
19692;DHT22;42748;50.016;19.890;2023-04-15T07:45:57;15.60;99.90
19692;DHT22;42748;50.016;19.890;2023-04-15T07:48:24;15.90;99.90
19692;DHT22;42748;50.016;19.890;2023-04-15T07:50:52;16.00;99.90
19692;DHT22;42748;50.016;19.890;2023-04-15T07:53:19;16.10;99.90
19692;DHT22;42748;50.016;19.890;2023-04-15T07:55:46;15.70;99.90
19692;DHT22;42748;50.016;19.890;2023-04-15T08:02:42;15.20;99.90
19692;DHT22;42748;50.016;19.890;2023-04-15T08:05:09;15.30;99.90
19692;DHT22;42748;50.016;19.890;2023-04-15T08:07:38;15.40;99.90
19692;DHT22;42748;50.016;19.890;2023-04-15T08:10:06;15.80;99.90
19692;DHT22;42748;50.016;19.890;2023-04-15T08:17:01;16.30;99.90
19692;DHT22;42748;50.016;19.890;2023-04-15T08:19:28;16.20;99.90
19692;DHT22;42748;50.016;19.890;2023-04-15T08:21:56;16.30;99.90
19692;DHT22;42748;50.016;19.890;2023-04-15T08:24:23;16.10;99.90
19692;DHT22;42748;50.016;19.890;2023-04-15T08:31:29;16.40;99.90
19692;DHT22;42748;50.016;19.890;2023-04-15T08:33:56;16.60;99.90
19692;DHT22;42748;50.016;19.890;2023-04-15T08:36:24;16.70;99.90
19692;DHT22;42748;50.016;19.890;2023-04-15T08:38:51;16.90;99.90
19692;DHT22;42748;50.016;19.890;2023-04-15T08:41:22;16.80;99.90
19692;DHT22;42748;50.016;19.890;2023-04-15T08:48:28;17.30;99.90
19692;DHT22;42748;50.016;19.890;2023-04-15T08:50:55;17.10;99.90
19692;DHT22;42748;50.016;19.890;2023-04-15T08:53:23;17.10;99.90
19692;DHT22;42748;50.016;19.890;2023-04-15T08:55:52;17.20;99.90
19692;DHT22;42748;50.016;19.890;2023-04-15T08:58:21;17.10;99.90
19692;DHT22;42748;50.016;19.890;2023-04-15T09:00:48;17.00;99.90
19692;DHT22;42748;50.016;19.890;2023-04-15T09:03:15;17.50;99.90
19692;DHT22;42748;50.016;19.890;2023-04-15T09:05:43;17.80;92.40
19692;DHT22;42748;50.016;19.890;2023-04-15T09:08:10;17.50;97.30
19692;DHT22;42748;50.016;19.890;2023-04-15T09:10:37;17.90;94.80
19692;DHT22;42748;50.016;19.890;2023-04-15T09:13:04;18.90;86.50
19692;DHT22;42748;50.016;19.890;2023-04-15T09:15:32;19.30;80.00
19692;DHT22;42748;50.016;19.890;2023-04-15T09:17:59;19.10;75.60
19692;DHT22;42748;50.016;19.890;2023-04-15T09:20:26;19.10;76.90
19692;DHT22;42748;50.016;19.890;2023-04-15T09:22:53;19.50;69.40
19692;DHT22;42748;50.016;19.890;2023-04-15T09:25:24;19.10;72.50
19692;DHT22;42748;50.016;19.890;2023-04-15T09:27:54;19.20;71.90
19692;DHT22;42748;50.016;19.890;2023-04-15T09:30:22;18.80;74.80
19692;DHT22;42748;50.016;19.890;2023-04-15T09:32:54;17.90;79.70
19692;DHT22;42748;50.016;19.890;2023-04-15T09:35:24;17.00;91.90
19692;DHT22;42748;50.016;19.890;2023-04-15T09:37:51;16.70;96.50
19692;DHT22;42748;50.016;19.890;2023-04-15T09:43:04;16.70;99.60
19692;DHT22;42748;50.016;19.890;2023-04-15T09:45:32;16.60;99.40
19692;DHT22;42748;50.016;19.890;2023-04-15T09:48:16;17.00;98.70
19692;DHT22;42748;50.016;19.890;2023-04-15T09:50:44;17.10;95.30
19692;DHT22;42748;50.016;19.890;2023-04-15T09:53:15;16.90;97.00
19692;DHT22;42748;50.016;19.890;2023-04-15T09:56:02;16.90;99.90
19692;DHT22;42748;50.016;19.890;2023-04-15T09:58:33;17.20;94.90
19692;DHT22;42748;50.016;19.890;2023-04-15T10:01:03;17.80;93.60
19692;DHT22;42748;50.016;19.890;2023-04-15T10:03:34;18.20;87.30
19692;DHT22;42748;50.016;19.890;2023-04-15T10:06:03;18.60;84.50
19692;DHT22;42748;50.016;19.890;2023-04-15T10:08:32;18.80;85.70
19692;DHT22;42748;50.016;19.890;2023-04-15T10:11:01;18.70;87.80
19692;DHT22;42748;50.016;19.890;2023-04-15T10:13:30;18.70;93.10
19692;DHT22;42748;50.016;19.890;2023-04-15T10:18:35;18.30;92.10
19692;DHT22;42748;50.016;19.890;2023-04-15T10:21:04;18.90;83.80
19692;DHT22;42748;50.016;19.890;2023-04-15T10:23:32;18.90;77.30
19692;DHT22;42748;50.016;19.890;2023-04-15T10:25:59;18.90;75.40
19692;DHT22;42748;50.016;19.890;2023-04-15T10:28:27;18.90;73.60
19692;DHT22;42748;50.016;19.890;2023-04-15T10:30:55;18.70;70.60
19692;DHT22;42748;50.016;19.890;2023-04-15T10:33:23;18.30;73.30
19692;DHT22;42748;50.016;19.890;2023-04-15T10:35:53;18.40;80.00
19692;DHT22;42748;50.016;19.890;2023-04-15T10:38:41;17.90;76.70
19692;DHT22;42748;50.016;19.890;2023-04-15T10:41:23;18.00;79.90
19692;DHT22;42748;50.016;19.890;2023-04-15T10:43:55;17.90;83.80
19692;DHT22;42748;50.016;19.890;2023-04-15T10:46:37;17.70;83.60
19692;DHT22;42748;50.016;19.890;2023-04-15T10:49:15;17.90;88.90
19692;DHT22;42748;50.016;19.890;2023-04-15T10:51:50;18.20;75.20
19692;DHT22;42748;50.016;19.890;2023-04-15T10:56:51;17.70;81.20
19692;DHT22;42748;50.016;19.890;2023-04-15T10:59:36;17.50;84.70
19692;DHT22;42748;50.016;19.890;2023-04-15T11:02:05;17.20;90.10
19692;DHT22;42748;50.016;19.890;2023-04-15T11:07:56;16.40;93.40
19692;DHT22;42748;50.016;19.890;2023-04-15T11:17:27;16.30;95.80
19692;DHT22;42748;50.016;19.890;2023-04-15T11:19:57;16.20;99.00
19692;DHT22;42748;50.016;19.890;2023-04-15T11:22:24;16.30;95.40
19692;DHT22;42748;50.016;19.890;2023-04-15T11:24:51;16.30;93.30
19692;DHT22;42748;50.016;19.890;2023-04-15T11:27:22;16.30;98.40
19692;DHT22;42748;50.016;19.890;2023-04-15T11:29:49;16.20;96.20
19692;DHT22;42748;50.016;19.890;2023-04-15T11:32:16;15.50;99.90
19692;DHT22;42748;50.016;19.890;2023-04-15T11:34:45;15.40;99.90
19692;DHT22;42748;50.016;19.890;2023-04-15T11:37:12;15.30;99.90
19692;DHT22;42748;50.016;19.890;2023-04-15T11:39:41;15.70;99.90
19692;DHT22;42748;50.016;19.890;2023-04-15T11:42:17;15.60;99.90
19692;DHT22;42748;50.016;19.890;2023-04-15T11:44:44;15.70;99.80
19692;DHT22;42748;50.016;19.890;2023-04-15T11:47:24;15.80;99.50
19692;DHT22;42748;50.016;19.890;2023-04-15T11:49:51;16.10;97.70
19692;DHT22;42748;50.016;19.890;2023-04-15T11:52:18;16.30;93.40
19692;DHT22;42748;50.016;19.890;2023-04-15T11:54:45;16.20;93.10
19692;DHT22;42748;50.016;19.890;2023-04-15T11:57:12;15.80;99.90
19692;DHT22;42748;50.016;19.890;2023-04-15T11:59:43;15.80;98.10
19692;DHT22;42748;50.016;19.890;2023-04-15T12:02:12;15.90;99.90
19692;DHT22;42748;50.016;19.890;2023-04-15T12:04:40;15.90;95.10
19692;DHT22;42748;50.016;19.890;2023-04-15T12:07:07;16.00;96.50
19692;DHT22;42748;50.016;19.890;2023-04-15T12:09:37;15.70;99.90
19692;DHT22;42748;50.016;19.890;2023-04-15T12:12:05;15.60;99.90
19692;DHT22;42748;50.016;19.890;2023-04-15T12:14:33;15.70;99.90
19692;DHT22;42748;50.016;19.890;2023-04-15T12:17:06;15.60;99.90
19692;DHT22;42748;50.016;19.890;2023-04-15T12:19:41;15.80;99.70
19692;DHT22;42748;50.016;19.890;2023-04-15T12:22:10;16.00;99.90
19692;DHT22;42748;50.016;19.890;2023-04-15T12:24:37;15.80;99.90
19692;DHT22;42748;50.016;19.890;2023-04-15T12:27:10;15.90;99.90
19692;DHT22;42748;50.016;19.890;2023-04-15T12:29:39;15.90;99.90
19692;DHT22;42748;50.016;19.890;2023-04-15T12:32:10;15.80;99.40
19692;DHT22;42748;50.016;19.890;2023-04-15T12:34:39;15.90;99.90
19692;DHT22;42748;50.016;19.890;2023-04-15T12:37:08;15.80;98.70
19692;DHT22;42748;50.016;19.890;2023-04-15T12:39:38;16.00;99.90
19692;DHT22;42748;50.016;19.890;2023-04-15T12:42:06;16.00;99.90
19692;DHT22;42748;50.016;19.890;2023-04-15T12:44:35;16.10;99.00
19692;DHT22;42748;50.016;19.890;2023-04-15T12:47:02;16.00;97.50
19692;DHT22;42748;50.016;19.890;2023-04-15T12:49:30;15.80;99.90
19692;DHT22;42748;50.016;19.890;2023-04-15T12:51:59;15.90;97.60
19692;DHT22;42748;50.016;19.890;2023-04-15T12:54:30;15.90;98.20
19692;DHT22;42748;50.016;19.890;2023-04-15T12:56:58;15.70;99.90
19692;DHT22;42748;50.016;19.890;2023-04-15T12:59:27;15.70;99.90
19692;DHT22;42748;50.016;19.890;2023-04-15T13:01:54;15.70;99.90
19692;DHT22;42748;50.016;19.890;2023-04-15T13:04:22;15.60;99.90
19692;DHT22;42748;50.016;19.890;2023-04-15T13:06:49;15.60;99.90
19692;DHT22;42748;50.016;19.890;2023-04-15T13:09:17;15.50;99.90
19692;DHT22;42748;50.016;19.890;2023-04-15T13:11:44;15.40;99.90
19692;DHT22;42748;50.016;19.890;2023-04-15T13:14:11;15.50;99.90
19692;DHT22;42748;50.016;19.890;2023-04-15T13:16:39;15.60;99.90
19692;DHT22;42748;50.016;19.890;2023-04-15T13:19:06;15.50;99.90
19692;DHT22;42748;50.016;19.890;2023-04-15T13:21:33;15.60;99.90
19692;DHT22;42748;50.016;19.890;2023-04-15T13:24:02;15.70;99.90
19692;DHT22;42748;50.016;19.890;2023-04-15T13:26:30;15.70;99.90
19692;DHT22;42748;50.016;19.890;2023-04-15T13:28:59;15.90;99.90
19692;DHT22;42748;50.016;19.890;2023-04-15T13:31:26;16.10;99.90
19692;DHT22;42748;50.016;19.890;2023-04-15T13:33:54;16.00;99.90
19692;DHT22;42748;50.016;19.890;2023-04-15T13:36:21;16.20;99.90
19692;DHT22;42748;50.016;19.890;2023-04-15T13:38:48;16.30;99.90
19692;DHT22;42748;50.016;19.890;2023-04-15T13:41:17;16.10;99.90
19692;DHT22;42748;50.016;19.890;2023-04-15T13:43:44;15.90;99.90
19692;DHT22;42748;50.016;19.890;2023-04-15T13:50:38;15.60;99.90
19692;DHT22;42748;50.016;19.890;2023-04-15T13:53:07;15.50;99.90
19692;DHT22;42748;50.016;19.890;2023-04-15T13:55:34;15.40;99.90
19692;DHT22;42748;50.016;19.890;2023-04-15T13:58:01;15.50;99.90
19692;DHT22;42748;50.016;19.890;2023-04-15T14:00:28;15.70;99.90
19692;DHT22;42748;50.016;19.890;2023-04-15T14:02:55;15.60;99.90
19692;DHT22;42748;50.016;19.890;2023-04-15T14:05:22;15.70;99.90
19692;DHT22;42748;50.016;19.890;2023-04-15T14:07:49;15.90;99.90
19692;DHT22;42748;50.016;19.890;2023-04-15T14:10:17;15.90;99.90
19692;DHT22;42748;50.016;19.890;2023-04-15T14:12:44;15.80;99.90
19692;DHT22;42748;50.016;19.890;2023-04-15T14:15:11;15.90;93.70
19692;DHT22;42748;50.016;19.890;2023-04-15T14:17:38;15.80;94.80
19692;DHT22;42748;50.016;19.890;2023-04-15T14:20:08;15.90;94.30
19692;DHT22;42748;50.016;19.890;2023-04-15T14:22:35;16.00;96.30
19692;DHT22;42748;50.016;19.890;2023-04-15T14:25:03;15.90;99.90
19692;DHT22;42748;50.016;19.890;2023-04-15T14:27:30;15.90;99.90
19692;DHT22;42748;50.016;19.890;2023-04-15T14:29:57;15.80;99.90
19692;DHT22;42748;50.016;19.890;2023-04-15T14:32:25;15.50;99.90
19692;DHT22;42748;50.016;19.890;2023-04-15T14:34:52;15.60;99.90
19692;DHT22;42748;50.016;19.890;2023-04-15T14:37:19;15.60;99.90
19692;DHT22;42748;50.016;19.890;2023-04-15T14:39:47;15.80;99.90
19692;DHT22;42748;50.016;19.890;2023-04-15T14:42:14;15.80;99.90
19692;DHT22;42748;50.016;19.890;2023-04-15T14:44:41;16.00;99.90
19692;DHT22;42748;50.016;19.890;2023-04-15T14:47:10;16.20;99.90
19692;DHT22;42748;50.016;19.890;2023-04-15T14:49:37;16.10;99.90
19692;DHT22;42748;50.016;19.890;2023-04-15T14:52:04;16.00;99.90
19692;DHT22;42748;50.016;19.890;2023-04-15T14:54:31;15.90;99.90
19692;DHT22;42748;50.016;19.890;2023-04-15T14:56:58;15.80;99.90
19692;DHT22;42748;50.016;19.890;2023-04-15T14:59:27;15.60;99.90
19692;DHT22;42748;50.016;19.890;2023-04-15T15:06:20;15.10;99.90
19692;DHT22;42748;50.016;19.890;2023-04-15T15:08:48;14.90;99.90
19692;DHT22;42748;50.016;19.890;2023-04-15T15:11:15;14.80;99.90
19692;DHT22;42748;50.016;19.890;2023-04-15T15:13:43;14.80;99.90
19692;DHT22;42748;50.016;19.890;2023-04-15T15:16:10;14.80;99.90
19692;DHT22;42748;50.016;19.890;2023-04-15T15:18:40;14.70;99.90
19692;DHT22;42748;50.016;19.890;2023-04-15T15:21:07;14.70;99.90
19692;DHT22;42748;50.016;19.890;2023-04-15T15:23:34;14.70;99.90
19692;DHT22;42748;50.016;19.890;2023-04-15T15:26:01;14.60;99.90
19692;DHT22;42748;50.016;19.890;2023-04-15T15:28:28;14.60;99.90
19692;DHT22;42748;50.016;19.890;2023-04-15T15:30:55;14.60;99.90
19692;DHT22;42748;50.016;19.890;2023-04-15T15:33:22;14.60;99.90
19692;DHT22;42748;50.016;19.890;2023-04-15T15:35:50;14.60;99.90
19692;DHT22;42748;50.016;19.890;2023-04-15T15:38:17;14.50;99.90
19692;DHT22;42748;50.016;19.890;2023-04-15T15:40:44;14.50;99.90
19692;DHT22;42748;50.016;19.890;2023-04-15T15:43:11;14.50;99.90
19692;DHT22;42748;50.016;19.890;2023-04-15T15:45:39;14.60;99.90
19692;DHT22;42748;50.016;19.890;2023-04-15T15:48:06;14.70;99.90
19692;DHT22;42748;50.016;19.890;2023-04-15T15:50:33;14.80;99.90
19692;DHT22;42748;50.016;19.890;2023-04-15T15:53:00;14.90;99.90
19692;DHT22;42748;50.016;19.890;2023-04-15T15:55:27;15.00;99.90
19692;DHT22;42748;50.016;19.890;2023-04-15T15:57:54;15.00;99.90
19692;DHT22;42748;50.016;19.890;2023-04-15T16:00:21;15.10;99.90
19692;DHT22;42748;50.016;19.890;2023-04-15T16:02:48;15.10;99.90
19692;DHT22;42748;50.016;19.890;2023-04-15T16:05:32;15.10;99.90
19692;DHT22;42748;50.016;19.890;2023-04-15T16:07:59;15.00;99.90
19692;DHT22;42748;50.016;19.890;2023-04-15T16:10:27;15.00;99.90
19692;DHT22;42748;50.016;19.890;2023-04-15T16:12:54;14.90;99.90
19692;DHT22;42748;50.016;19.890;2023-04-15T16:15:23;14.30;99.90
19692;DHT22;42748;50.016;19.890;2023-04-15T16:17:50;13.00;99.90
19692;DHT22;42748;50.016;19.890;2023-04-15T16:20:18;12.10;99.90
19692;DHT22;42748;50.016;19.890;2023-04-15T16:22:45;11.60;99.90
19692;DHT22;42748;50.016;19.890;2023-04-15T16:25:12;11.20;99.90
19692;DHT22;42748;50.016;19.890;2023-04-15T16:27:39;10.80;99.90
19692;DHT22;42748;50.016;19.890;2023-04-15T16:30:24;10.30;99.90
19692;DHT22;42748;50.016;19.890;2023-04-15T16:32:52;9.90;99.90
19692;DHT22;42748;50.016;19.890;2023-04-15T16:35:19;9.90;99.90
19692;DHT22;42748;50.016;19.890;2023-04-15T16:37:46;10.00;99.90
19692;DHT22;42748;50.016;19.890;2023-04-15T16:40:14;10.00;99.90
19692;DHT22;42748;50.016;19.890;2023-04-15T16:42:41;9.80;99.90
19692;DHT22;42748;50.016;19.890;2023-04-15T16:45:09;9.60;99.90
19692;DHT22;42748;50.016;19.890;2023-04-15T16:52:03;9.60;99.90
19692;DHT22;42748;50.016;19.890;2023-04-15T16:54:30;9.70;99.90
19692;DHT22;42748;50.016;19.890;2023-04-15T16:57:00;9.70;99.90
19692;DHT22;42748;50.016;19.890;2023-04-15T16:59:28;9.90;99.90